Time;durP1;ratioP1;P1;durP2;ratioP2;P2;SDS_P1;SDS_P2;PMS_P1;PMS_P2;Temp;Humidity;BMP_temperature;BMP_pressure;BME280_temperature;BME280_humidity;BME280_pressure;Samples;Min_cycle;Max_cycle;Signal;HPM_P1;HPM_P2
2022/03/11 00:02:24;;;;;;;9.23;6.23;;;;;;;5.13;nan;98437.41;5036669;28;20216;-70
2022/03/11 00:04:51;;;;;;;8.70;5.87;;;;;;;5.33;nan;98427.22;5036547;28;20226;-70
2022/03/11 00:07:17;;;;;;;9.43;6.17;;;;;;;5.28;nan;98424.28;5036284;28;20213;-70
2022/03/11 00:09:44;;;;;;;9.13;6.37;;;;;;;5.32;nan;98418.50;5036546;28;20210;-71
2022/03/11 00:12:10;;;;;;;8.37;6.40;;;;;;;5.35;nan;98423.41;5036502;28;20206;-70
2022/03/11 00:14:37;;;;;;;9.50;6.30;;;;;;;5.22;nan;98425.00;5036318;28;20226;-70
2022/03/11 00:17:04;;;;;;;9.33;6.70;;;;;;;5.24;nan;98421.19;5035987;28;20256;-70
2022/03/11 00:19:31;;;;;;;9.87;6.30;;;;;;;5.10;nan;98418.47;5036080;28;20577;-71
2022/03/11 00:21:57;;;;;;;9.73;7.63;;;;;;;5.13;nan;98410.22;5036312;28;20214;-70
2022/03/11 00:24:23;;;;;;;10.27;6.93;;;;;;;5.11;nan;98412.22;5036207;28;20230;-70
2022/03/11 00:26:50;;;;;;;11.07;7.13;;;;;;;4.99;nan;98411.81;5036251;28;20209;-71
2022/03/11 00:29:17;;;;;;;9.60;7.17;;;;;;;4.93;nan;98415.13;5036186;28;20206;-70
2022/03/11 00:31:45;;;;;;;7.60;6.40;;;;;;;4.79;nan;98415.88;5035816;28;20675;-70
2022/03/11 00:34:11;;;;;;;10.23;7.27;;;;;;;4.73;nan;98415.75;5035634;28;20276;-71
2022/03/11 00:36:38;;;;;;;9.37;8.07;;;;;;;4.57;nan;98418.50;5036011;28;20210;-70
2022/03/11 00:39:05;;;;;;;10.47;7.67;;;;;;;4.59;nan;98412.06;5035366;28;20226;-70
2022/03/11 00:41:31;;;;;;;9.23;7.30;;;;;;;4.59;nan;98414.69;5035937;28;20212;-70
2022/03/11 00:43:58;;;;;;;10.57;7.90;;;;;;;4.75;nan;98406.69;5036025;28;20232;-70
2022/03/11 00:46:24;;;;;;;9.63;7.60;;;;;;;4.81;nan;98402.56;5035564;28;20213;-70
2022/03/11 00:48:50;;;;;;;11.30;7.83;;;;;;;4.80;nan;98412.25;5036040;28;20202;-70
2022/03/11 00:51:17;;;;;;;10.30;8.50;;;;;;;4.71;nan;98409.84;5035772;28;20214;-70
2022/03/11 00:53:43;;;;;;;12.90;9.10;;;;;;;4.80;nan;98419.34;5035390;28;20233;-70
2022/03/11 00:56:09;;;;;;;10.30;8.80;;;;;;;4.75;nan;98411.16;5035724;28;20190;-70
2022/03/11 00:58:36;;;;;;;11.87;9.00;;;;;;;4.63;nan;98412.53;5035535;28;20229;-71
2022/03/11 01:01:03;;;;;;;12.67;9.47;;;;;;;4.58;nan;98412.22;5035606;28;20213;-70
2022/03/11 01:03:30;;;;;;;13.50;9.23;;;;;;;4.68;nan;98410.19;5035490;28;20236;-71
2022/03/11 01:05:56;;;;;;;10.57;8.27;;;;;;;4.59;nan;98412.06;5035477;28;20206;-70
2022/03/11 01:08:23;;;;;;;14.00;9.80;;;;;;;4.54;nan;98410.94;5035697;28;20297;-70
2022/03/11 01:10:49;;;;;;;12.27;9.53;;;;;;;4.54;nan;98411.75;5035431;28;20202;-70
2022/03/11 01:13:16;;;;;;;12.63;9.13;;;;;;;4.42;nan;98407.03;5035095;28;20216;-71
2022/03/11 01:15:43;;;;;;;14.70;9.53;;;;;;;4.31;nan;98405.63;5035031;28;20214;-70
2022/03/11 01:18:09;;;;;;;11.60;9.03;;;;;;;4.25;nan;98408.13;5035145;28;20225;-71
2022/03/11 01:20:36;;;;;;;13.30;9.50;;;;;;;4.13;nan;98406.84;5035223;28;20202;-70
2022/03/11 01:23:02;;;;;;;13.00;9.43;;;;;;;4.22;nan;98400.56;5035167;28;20208;-71
2022/03/11 01:25:28;;;;;;;14.20;10.13;;;;;;;4.20;nan;98402.56;5035033;28;20232;-70
2022/03/11 01:27:55;;;;;;;12.07;9.97;;;;;;;4.34;nan;98391.31;5035136;28;20320;-70
2022/03/11 01:30:21;;;;;;;14.73;10.83;;;;;;;4.24;nan;98394.13;5035277;28;20210;-71
2022/03/11 01:32:47;;;;;;;12.63;10.30;;;;;;;4.27;nan;98395.59;5034973;28;20210;-71
2022/03/11 01:35:14;;;;;;;13.37;10.07;;;;;;;4.19;nan;98403.50;5034796;28;20230;-70
2022/03/11 01:37:40;;;;;;;14.23;10.20;;;;;;;4.21;nan;98396.28;5034828;28;20221;-70
2022/03/11 01:40:07;;;;;;;14.50;10.70;;;;;;;4.05;nan;98398.97;5035152;28;20205;-70
2022/03/11 01:42:36;;;;;;;14.90;10.07;;;;;;;4.10;nan;98396.63;5034788;28;20210;-70
2022/03/11 01:45:04;;;;;;;13.97;10.67;;;;;;;4.13;nan;98398.94;5034350;28;20226;-70
2022/03/11 01:47:31;;;;;;;13.60;10.67;;;;;;;4.01;nan;98395.88;5034376;28;20229;-70
2022/03/11 01:49:58;;;;;;;14.13;10.70;;;;;;;3.99;nan;98397.03;5034657;28;20217;-70
2022/03/11 01:52:24;;;;;;;14.37;10.53;;;;;;;3.89;nan;98396.41;5033675;28;20217;-71
2022/03/11 01:54:51;;;;;;;13.30;10.70;;;;;;;3.94;nan;98388.81;5034360;28;20234;-70
2022/03/11 01:57:18;;;;;;;13.20;10.67;;;;;;;3.89;nan;98391.94;5034532;28;20237;-71
2022/03/11 01:59:44;;;;;;;13.30;10.83;;;;;;;3.91;nan;98395.25;5034135;28;20222;-71
2022/03/11 02:02:11;;;;;;;13.80;11.13;;;;;;;3.76;nan;98389.00;5034143;28;20232;-71
2022/03/11 02:04:37;;;;;;;13.77;11.27;;;;;;;3.77;nan;98395.09;5034389;28;20230;-70
2022/03/11 02:07:05;;;;;;;14.37;11.33;;;;;;;3.81;nan;98388.53;5034203;28;20217;-70
2022/03/11 02:09:32;;;;;;;14.57;11.40;;;;;;;3.61;nan;98388.06;5034179;28;20198;-70
2022/03/11 02:11:58;;;;;;;13.40;10.93;;;;;;;3.57;nan;98384.13;5034173;28;20229;-70
2022/03/11 02:14:25;;;;;;;17.03;11.43;;;;;;;3.63;nan;98385.28;5034118;28;20222;-71
2022/03/11 02:16:51;;;;;;;13.47;11.17;;;;;;;3.72;nan;98386.91;5034175;28;20206;-70
2022/03/11 02:19:17;;;;;;;15.53;11.80;;;;;;;3.58;nan;98382.34;5034011;28;20236;-70
2022/03/11 02:21:46;;;;;;;13.70;11.03;;;;;;;3.43;nan;98382.19;5034113;28;20222;-70
2022/03/11 02:24:14;;;;;;;15.03;11.93;;;;;;;3.35;nan;98384.00;5033643;28;20600;-70
2022/03/11 02:26:41;;;;;;;18.03;11.80;;;;;;;3.23;nan;98373.03;5034057;28;20577;-70
2022/03/11 02:29:08;;;;;;;12.60;11.17;;;;;;;3.20;nan;98383.03;5033980;28;20206;-71
2022/03/11 02:31:34;;;;;;;15.43;11.87;;;;;;;3.17;nan;98378.91;5033899;28;20571;-70
2022/03/11 02:34:04;;;;;;;13.90;11.50;;;;;;;3.01;nan;98380.72;5033887;28;20628;-70
2022/03/11 02:36:30;;;;;;;16.83;12.00;;;;;;;2.96;nan;98381.22;5034108;28;20206;-71
2022/03/11 02:38:57;;;;;;;13.70;11.67;;;;;;;2.90;nan;98383.69;5034497;28;20225;-70
2022/03/11 02:41:24;;;;;;;17.53;12.10;;;;;;;2.85;nan;98383.34;5033882;28;20210;-70
2022/03/11 02:43:50;;;;;;;15.37;11.40;;;;;;;2.76;nan;98387.75;5033950;28;20225;-70
2022/03/11 02:46:17;;;;;;;15.80;11.73;;;;;;;2.73;nan;98390.72;5033739;28;20216;-71
2022/03/11 02:48:43;;;;;;;18.40;12.27;;;;;;;2.67;nan;98385.28;5033946;28;20558;-70
2022/03/11 02:51:10;;;;;;;17.40;13.27;;;;;;;2.65;nan;98382.00;5033391;28;20224;-70
2022/03/11 02:53:40;;;;;;;15.33;12.20;;;;;;;2.60;nan;98376.41;5033139;28;20698;-70
2022/03/11 02:56:07;;;;;;;17.77;12.83;;;;;;;2.60;nan;98364.13;5033774;28;20200;-70
2022/03/11 02:58:33;;;;;;;19.27;12.93;;;;;;;2.58;nan;98373.13;5033508;28;20226;-70
2022/03/11 03:01:03;;;;;;;15.60;12.73;;;;;;;2.53;nan;98370.19;5033614;28;20229;-70
2022/03/11 03:03:29;;;;;;;20.53;12.57;;;;;;;2.51;nan;98364.25;5033197;28;20213;-70
2022/03/11 03:05:56;;;;;;;17.47;12.70;;;;;;;2.49;nan;98376.72;5033534;28;20205;-71
2022/03/11 03:08:22;;;;;;;17.93;13.27;;;;;;;2.64;nan;98362.81;5033464;28;20213;-70
2022/03/11 03:10:48;;;;;;;20.47;14.20;;;;;;;2.56;nan;98362.78;5033498;28;20229;-70
2022/03/11 03:13:15;;;;;;;18.47;13.60;;;;;;;2.48;nan;98367.22;5033514;28;20201;-70
2022/03/11 03:15:41;;;;;;;18.70;13.37;;;;;;;2.44;nan;98369.31;5033404;28;20232;-70
2022/03/11 03:18:08;;;;;;;16.43;12.63;;;;;;;2.40;nan;98361.94;5033413;28;20226;-70
2022/03/11 03:20:34;;;;;;;18.47;14.03;;;;;;;2.41;nan;98360.97;5033410;28;20212;-70
2022/03/11 03:23:00;;;;;;;18.67;13.00;;;;;;;2.36;nan;98365.88;5033602;28;20206;-70
2022/03/11 03:25:27;;;;;;;16.93;13.83;;;;;;;2.39;nan;98365.56;5033303;28;20270;-70
2022/03/11 03:27:54;;;;;;;17.10;12.57;;;;;;;2.38;nan;98367.34;5033026;28;20213;-70
2022/03/11 03:30:20;;;;;;;16.30;12.63;;;;;;;2.34;nan;98358.16;5033007;28;20771;-70
2022/03/11 03:32:47;;;;;;;17.60;13.90;;;;;;;2.29;nan;98363.06;5033043;28;20305;-71
2022/03/11 03:35:13;;;;;;;18.43;14.27;;;;;;;2.29;nan;98355.19;5033337;28;20244;-70
2022/03/11 03:37:40;;;;;;;19.07;13.97;;;;;;;2.30;nan;98356.81;5032936;28;20692;-70
2022/03/11 03:40:08;;;;;;;18.33;13.37;;;;;;;2.31;nan;98357.66;5033146;28;20233;-70
2022/03/11 03:42:35;;;;;;;18.17;14.27;;;;;;;2.30;nan;98361.28;5033190;28;20206;-70
2022/03/11 03:45:02;;;;;;;18.80;14.10;;;;;;;2.27;nan;98364.19;5032797;28;20704;-70
2022/03/11 03:47:28;;;;;;;18.80;13.57;;;;;;;2.29;nan;98364.84;5033340;28;20217;-70
2022/03/11 03:49:54;;;;;;;18.57;13.17;;;;;;;2.28;nan;98364.03;5033696;28;20212;-70
2022/03/11 03:52:21;;;;;;;19.13;14.03;;;;;;;2.23;nan;98365.50;5033148;28;20213;-70
2022/03/11 03:54:47;;;;;;;17.60;13.73;;;;;;;2.21;nan;98363.03;5033329;28;20248;-70
2022/03/11 03:57:14;;;;;;;18.97;14.13;;;;;;;2.13;nan;98357.78;5033044;28;20209;-71
2022/03/11 03:59:40;;;;;;;18.57;14.33;;;;;;;2.13;nan;98359.56;5033669;28;20229;-70
2022/03/11 04:02:07;;;;;;;17.80;14.37;;;;;;;2.03;nan;98353.63;5032935;28;20568;-71
2022/03/11 04:04:33;;;;;;;22.67;15.37;;;;;;;2.07;nan;98360.22;5033214;28;20222;-70
2022/03/11 04:06:59;;;;;;;16.47;13.23;;;;;;;2.04;nan;98353.50;5032927;28;20210;-70
2022/03/11 04:09:26;;;;;;;19.67;15.30;;;;;;;2.03;nan;98354.44;5033160;28;20202;-70
2022/03/11 04:11:52;;;;;;;19.50;14.70;;;;;;;1.98;nan;98350.66;5032615;28;20218;-70
2022/03/11 04:14:18;;;;;;;20.30;15.17;;;;;;;2.00;nan;98351.31;5033092;28;20230;-70
2022/03/11 04:16:45;;;;;;;19.63;14.83;;;;;;;2.01;nan;98351.16;5036145;28;20210;-70
2022/03/11 04:19:11;;;;;;;23.87;15.37;;;;;;;1.97;nan;98360.31;5036206;28;20252;-71
2022/03/11 04:21:37;;;;;;;19.87;15.33;;;;;;;1.89;nan;98359.47;5036329;28;20212;-70
2022/03/11 04:24:12;;;;;;;22.33;15.40;;;;;;;1.90;nan;98359.31;5036108;28;20225;-70
2022/03/11 04:26:39;;;;;;;21.63;15.73;;;;;;;1.89;nan;98356.88;5036106;28;20255;-70
2022/03/11 04:29:05;;;;;;;19.70;14.40;;;;;;;1.85;nan;98355.53;5036162;28;20202;-70
2022/03/11 04:31:32;;;;;;;20.93;15.00;;;;;;;1.82;nan;98364.53;5035557;28;20252;-70
2022/03/11 04:33:58;;;;;;;20.47;14.63;;;;;;;1.80;nan;98363.84;5035840;28;20226;-70
2022/03/11 04:36:24;;;;;;;19.83;14.30;;;;;;;1.81;nan;98364.69;5035362;28;20570;-70
2022/03/11 04:38:51;;;;;;;20.83;15.37;;;;;;;1.76;nan;98356.47;5035395;28;20242;-70
2022/03/11 04:41:17;;;;;;;21.80;14.90;;;;;;;1.73;nan;98359.41;5035692;28;20292;-70
2022/03/11 04:43:45;;;;;;;19.27;15.33;;;;;;;1.71;nan;98362.16;5035392;28;20230;-70
2022/03/11 04:46:12;;;;;;;22.27;15.63;;;;;;;1.68;nan;98354.63;5035676;28;20206;-70
2022/03/11 04:48:40;;;;;;;19.53;15.27;;;;;;;1.68;nan;98361.66;5035721;28;20209;-70
2022/03/11 04:51:06;;;;;;;20.33;15.50;;;;;;;1.62;nan;98360.47;5035565;28;20615;-70
2022/03/11 04:53:32;;;;;;;22.20;15.03;;;;;;;1.60;nan;98351.13;5035259;28;20205;-70
2022/03/11 04:55:59;;;;;;;20.43;14.53;;;;;;;1.56;nan;98362.91;5036399;28;20205;-70
2022/03/11 04:58:25;;;;;;;19.80;14.70;;;;;;;1.50;nan;98353.88;5035863;28;20209;-70
2022/03/11 05:00:52;;;;;;;20.23;15.27;;;;;;;1.41;nan;98356.59;5034819;28;20726;-70
2022/03/11 05:03:18;;;;;;;20.83;14.30;;;;;;;1.47;nan;98355.97;5034723;28;20206;-70
2022/03/11 05:05:44;;;;;;;20.77;14.70;;;;;;;1.46;nan;98359.56;5034679;28;20209;-70
2022/03/11 05:08:11;;;;;;;20.53;14.40;;;;;;;1.50;nan;98351.25;5035048;28;20209;-70
2022/03/11 05:10:37;;;;;;;19.10;14.43;;;;;;;1.46;nan;98354.31;5035248;28;20208;-70
2022/03/11 05:13:03;;;;;;;22.93;13.83;;;;;;;1.36;nan;98351.84;5034809;28;20730;-70
2022/03/11 05:15:30;;;;;;;20.67;14.30;;;;;;;1.30;nan;98355.03;5035013;28;20618;-70
2022/03/11 05:17:56;;;;;;;21.47;13.90;;;;;;;1.33;nan;98354.75;5035091;28;20236;-70
2022/03/11 05:20:23;;;;;;;16.07;12.63;;;;;;;1.34;nan;98361.63;5035402;28;20268;-70
2022/03/11 05:22:50;;;;;;;18.50;12.17;;;;;;;1.39;nan;98356.75;5034801;28;20210;-70
2022/03/11 05:25:16;;;;;;;19.10;12.27;;;;;;;1.33;nan;98364.41;5034479;28;20241;-70
2022/03/11 05:27:43;;;;;;;14.77;11.37;;;;;;;1.38;nan;98364.75;5034875;28;20481;-70
2022/03/11 05:30:10;;;;;;;15.27;11.40;;;;;;;1.36;nan;98369.34;5034422;28;20441;-70
2022/03/11 05:32:44;;;;;;;14.43;10.97;;;;;;;1.37;nan;98366.56;5034693;28;20212;-70
2022/03/11 05:35:11;;;;;;;17.90;10.80;;;;;;;1.36;nan;98370.16;5034581;28;20316;-70
2022/03/11 05:37:38;;;;;;;14.00;10.53;;;;;;;1.38;nan;98368.19;5034118;28;20672;-70
2022/03/11 05:40:05;;;;;;;14.77;10.63;;;;;;;1.35;nan;98365.88;5034179;28;20752;-70
2022/03/11 05:42:31;;;;;;;13.43;9.67;;;;;;;1.29;nan;98373.53;5033856;28;20664;-70
2022/03/11 05:44:58;;;;;;;12.70;9.87;;;;;;;1.29;nan;98376.16;5034109;28;20467;-70
2022/03/11 05:47:25;;;;;;;14.27;9.93;;;;;;;1.37;nan;98370.97;5033865;28;20672;-70
2022/03/11 05:49:51;;;;;;;10.93;9.20;;;;;;;1.33;nan;98372.25;5033884;28;20205;-70
2022/03/11 05:52:17;;;;;;;12.17;9.37;;;;;;;1.37;nan;98371.81;5034042;28;20209;-70
2022/03/11 05:54:44;;;;;;;12.87;9.97;;;;;;;1.35;nan;98373.75;5033781;28;20240;-70
2022/03/11 05:57:10;;;;;;;13.77;8.90;;;;;;;1.34;nan;98361.63;5033851;28;20296;-70
2022/03/11 05:59:36;;;;;;;12.77;9.13;;;;;;;1.43;nan;98370.34;5034008;28;20585;-70
2022/03/11 06:02:03;;;;;;;12.73;9.50;;;;;;;1.39;nan;98364.59;5033770;28;20547;-70
2022/03/11 06:04:30;;;;;;;10.17;8.40;;;;;;;1.39;nan;98366.41;5033855;28;20241;-70
2022/03/11 06:06:56;;;;;;;11.17;8.03;;;;;;;1.36;nan;98374.56;5033691;28;20956;-70
2022/03/11 06:09:22;;;;;;;13.03;8.53;;;;;;;1.43;nan;98375.59;5033413;28;20220;-70
2022/03/11 06:11:49;;;;;;;13.43;8.33;;;;;;;1.48;nan;98376.78;5033672;28;20213;-70
2022/03/11 06:14:15;;;;;;;12.77;8.30;;;;;;;1.41;nan;98372.31;5032662;28;20230;-70
2022/03/11 06:16:42;;;;;;;12.13;8.87;;;;;;;1.47;nan;98379.53;5032969;28;20205;-70
2022/03/11 06:19:08;;;;;;;14.03;8.10;;;;;;;1.47;nan;98379.53;5033142;28;20233;-70
2022/03/11 06:21:35;;;;;;;11.53;7.70;;;;;;;1.52;nan;98388.59;5032984;28;20517;-70
2022/03/11 06:24:01;;;;;;;12.53;8.23;;;;;;;1.57;nan;98381.09;5032625;28;20225;-70
2022/03/11 06:26:27;;;;;;;11.83;7.83;;;;;;;1.57;nan;98380.28;5033044;28;20221;-70
2022/03/11 06:28:54;;;;;;;10.33;7.47;;;;;;;1.63;nan;98377.84;5033334;28;20216;-70
2022/03/11 06:31:20;;;;;;;11.57;7.80;;;;;;;1.67;nan;98370.50;5033274;28;20577;-70
2022/03/11 06:33:46;;;;;;;12.77;7.37;;;;;;;1.73;nan;98380.34;5033116;28;20228;-70
2022/03/11 06:36:13;;;;;;;11.03;7.80;;;;;;;1.76;nan;98382.69;5033450;28;20206;-73
2022/03/11 06:38:39;;;;;;;10.37;7.77;;;;;;;1.78;nan;98385.94;5032328;28;20264;-70
2022/03/11 06:41:06;;;;;;;10.63;7.10;;;;;;;1.83;nan;98389.75;5032354;28;20700;-70
2022/03/11 06:43:33;;;;;;;10.37;7.17;;;;;;;1.90;nan;98388.13;5032653;28;20256;-70
2022/03/11 06:46:00;;;;;;;10.50;7.03;;;;;;;1.94;nan;98380.81;5047857;28;20668;-70
2022/03/11 06:48:26;;;;;;;10.73;7.10;;;;;;;1.94;nan;98372.94;5032979;28;20573;-70
2022/03/11 06:50:53;;;;;;;11.90;6.93;;;;;;;2.01;nan;98376.56;5032886;28;20237;-70
2022/03/11 06:53:25;;;;;;;11.73;7.20;;;;;;;2.11;nan;98377.25;5032779;28;20358;-70
2022/03/11 06:55:51;;;;;;;9.97;6.67;;;;;;;2.10;nan;98376.44;5032838;28;20213;-70
2022/03/11 06:58:18;;;;;;;9.80;6.20;;;;;;;2.16;nan;98375.00;5032812;28;20219;-70
2022/03/11 07:00:44;;;;;;;10.50;6.43;;;;;;;2.21;nan;98372.72;5032679;28;20586;-70
2022/03/11 07:03:11;;;;;;;9.37;6.67;;;;;;;2.32;nan;98380.28;5032604;28;20672;-70
2022/03/11 07:05:37;;;;;;;8.30;5.87;;;;;;;2.31;nan;98374.19;5032266;28;20712;-70
2022/03/11 07:08:04;;;;;;;14.53;6.07;;;;;;;2.32;nan;98385.53;5032463;28;20210;-70
2022/03/11 07:10:30;;;;;;;11.23;6.40;;;;;;;2.29;nan;98389.28;5033165;28;20202;-70
2022/03/11 07:12:58;;;;;;;9.33;6.23;;;;;;;2.40;nan;98388.19;5033050;28;20201;-70
2022/03/11 07:15:24;;;;;;;9.27;5.47;;;;;;;2.53;nan;98391.97;5032615;28;20567;-70
2022/03/11 07:17:51;;;;;;;9.37;6.10;;;;;;;2.47;nan;98390.00;5032749;28;20217;-70
2022/03/11 07:20:18;;;;;;;9.90;5.73;;;;;;;2.48;nan;98380.34;5032534;28;20626;-72
2022/03/11 07:22:47;;;;;;;8.13;5.47;;;;;;;2.60;nan;98394.78;5032148;28;20212;-69
2022/03/11 07:25:15;;;;;;;11.60;6.03;;;;;;;2.59;nan;98398.41;5032628;28;20309;-70
2022/03/11 07:27:41;;;;;;;9.77;5.63;;;;;;;2.67;nan;98393.97;5031303;28;20301;-70
2022/03/11 07:30:11;;;;;;;7.93;5.63;;;;;;;2.69;nan;98392.03;5032704;28;20205;-70
2022/03/11 07:32:38;;;;;;;9.10;5.80;;;;;;;2.84;nan;98389.59;5032164;28;20205;-70
2022/03/11 07:35:05;;;;;;;8.00;6.13;;;;;;;2.84;nan;98384.34;5032629;28;20234;-70
2022/03/11 07:37:32;;;;;;;8.90;6.17;;;;;;;2.95;nan;98390.09;5032607;28;20209;-70
2022/03/11 07:39:58;;;;;;;10.43;5.90;;;;;;;2.95;nan;98392.72;5032722;28;20241;-70
2022/03/11 07:42:24;;;;;;;9.27;6.10;;;;;;;2.88;nan;98396.97;5032800;28;20206;-70
2022/03/11 07:44:51;;;;;;;7.93;5.83;;;;;;;3.00;nan;98398.31;5032497;28;20233;-70
2022/03/11 07:47:17;;;;;;;7.60;5.77;;;;;;;3.12;nan;98396.97;5032578;28;20210;-70
2022/03/11 07:49:43;;;;;;;9.17;6.57;;;;;;;3.17;nan;98399.13;5033666;28;20209;-70
2022/03/11 07:52:15;;;;;;;11.67;6.20;;;;;;;3.14;nan;98395.03;5036411;28;20213;-70
2022/03/11 07:54:43;;;;;;;10.90;5.80;;;;;;;3.17;nan;98393.88;5036009;28;20324;-70
2022/03/11 07:57:10;;;;;;;11.80;6.17;;;;;;;3.36;nan;98391.72;5036085;28;20217;-70
2022/03/11 07:59:37;;;;;;;8.07;6.43;;;;;;;3.24;nan;98389.59;5036187;28;20226;-70
2022/03/11 08:02:07;;;;;;;7.70;5.70;;;;;;;3.33;nan;98383.34;5036439;28;20296;-69
2022/03/11 08:04:33;;;;;;;7.40;5.87;;;;;;;3.38;nan;98381.88;5036564;28;20230;-70
2022/03/11 08:07:05;;;;;;;8.33;6.17;;;;;;;3.64;nan;98381.66;5036077;28;20214;-70
2022/03/11 08:09:31;;;;;;;12.43;6.13;;;;;;;3.73;nan;98385.91;5036401;28;20194;-70
2022/03/11 08:11:58;;;;;;;9.67;6.50;;;;;;;3.78;nan;98380.97;5036274;28;20303;-69
2022/03/11 08:14:24;;;;;;;10.73;6.17;;;;;;;3.67;nan;98383.97;5036165;28;20230;-70
2022/03/11 08:16:50;;;;;;;8.43;6.13;;;;;;;3.80;nan;98389.53;5036081;28;20213;-70
2022/03/11 08:19:17;;;;;;;8.43;6.03;;;;;;;4.05;nan;98388.44;5035829;28;20206;-70
2022/03/11 08:21:43;;;;;;;8.40;6.93;;;;;;;3.95;nan;98393.91;5036410;28;20209;-70
2022/03/11 08:24:10;;;;;;;9.47;6.53;;;;;;;4.00;nan;98381.06;5036660;28;20225;-70
2022/03/11 08:26:36;;;;;;;9.73;6.03;;;;;;;4.04;nan;98379.75;5036341;28;20202;-70
2022/03/11 08:29:02;;;;;;;9.97;6.30;;;;;;;4.12;nan;98386.78;5035846;28;20205;-70
2022/03/11 08:31:29;;;;;;;9.40;6.13;;;;;;;4.28;nan;98392.81;5035595;28;20687;-70
2022/03/11 08:33:55;;;;;;;7.93;5.83;;;;;;;4.44;nan;98391.91;5035627;28;20244;-70
2022/03/11 08:36:21;;;;;;;13.33;6.77;;;;;;;4.32;nan;98385.38;5035659;28;20212;-70
2022/03/11 08:38:48;;;;;;;8.43;6.00;;;;;;;4.46;nan;98384.66;5035796;28;20210;-70
2022/03/11 08:41:16;;;;;;;9.10;6.27;;;;;;;4.60;nan;98386.53;5035662;28;20230;-70
2022/03/11 08:43:48;;;;;;;8.87;6.70;;;;;;;4.54;nan;98381.97;5035059;28;20276;-70
2022/03/11 08:46:15;;;;;;;16.50;6.83;;;;;;;4.57;nan;98381.63;5035392;28;20194;-70
2022/03/11 08:48:43;;;;;;;8.33;6.20;;;;;;;4.79;nan;98383.47;5035516;28;20206;-70
2022/03/11 08:51:10;;;;;;;12.97;7.20;;;;;;;4.70;nan;98377.44;5035532;28;20210;-70
2022/03/11 08:53:37;;;;;;;10.40;6.50;;;;;;;4.86;nan;98379.13;5035112;28;20208;-70
2022/03/11 08:56:04;;;;;;;11.80;6.60;;;;;;;4.71;nan;98373.00;5035282;28;20190;-70
2022/03/11 08:58:30;;;;;;;9.03;6.60;;;;;;;4.82;nan;98368.13;5035187;28;20209;-70
2022/03/11 09:00:57;;;;;;;9.17;6.27;;;;;;;5.04;nan;98371.75;5034426;28;20700;-70
2022/03/11 09:03:23;;;;;;;10.53;6.80;;;;;;;4.81;nan;98369.13;5034775;28;20664;-70
2022/03/11 09:05:50;;;;;;;10.53;6.47;;;;;;;5.01;nan;98362.41;5035110;28;20214;-70
2022/03/11 09:08:16;;;;;;;11.07;6.73;;;;;;;5.08;nan;98355.44;5034877;28;20566;-70
2022/03/11 09:10:43;;;;;;;11.87;6.60;;;;;;;5.13;nan;98355.72;5035058;28;20304;-70
2022/03/11 09:13:10;;;;;;;9.80;6.60;;;;;;;5.30;nan;98353.75;5034849;28;20212;-70
2022/03/11 09:15:36;;;;;;;9.73;6.70;;;;;;;5.46;nan;98356.22;5034778;28;20226;-70
2022/03/11 09:18:03;;;;;;;13.27;6.83;;;;;;;5.47;nan;98355.25;5034980;28;20292;-71
2022/03/11 09:20:29;;;;;;;9.10;6.40;;;;;;;5.46;nan;98351.78;5034948;28;20229;-70
2022/03/11 09:22:56;;;;;;;10.40;6.93;;;;;;;5.55;nan;98353.34;5034941;28;20297;-71
2022/03/11 09:25:22;;;;;;;10.20;6.60;;;;;;;5.65;nan;98342.53;5034255;28;20226;-71
2022/03/11 09:27:49;;;;;;;9.23;7.00;;;;;;;5.58;nan;98350.34;5035460;28;20212;-71
2022/03/11 09:30:16;;;;;;;10.00;7.30;;;;;;;5.79;nan;98339.91;5034298;28;20206;-70
2022/03/11 09:32:42;;;;;;;11.23;6.77;;;;;;;5.98;nan;98347.28;5034538;28;20217;-71
2022/03/11 09:35:09;;;;;;;12.80;6.87;;;;;;;6.17;nan;98338.00;5034020;28;20225;-71
2022/03/11 09:37:36;;;;;;;8.87;6.63;;;;;;;6.29;nan;98331.25;5034985;28;20212;-71
2022/03/11 09:40:03;;;;;;;8.93;6.90;;;;;;;6.27;nan;98331.44;5034980;28;20222;-71
2022/03/11 09:42:31;;;;;;;9.97;7.07;;;;;;;6.45;nan;98333.66;5033581;28;20206;-71
2022/03/11 09:44:58;;;;;;;15.17;7.53;;;;;;;6.53;nan;98326.47;5034026;28;20225;-71
2022/03/11 09:47:25;;;;;;;9.43;7.20;;;;;;;6.36;nan;98327.69;5034121;28;20210;-71
2022/03/11 09:49:52;;;;;;;8.60;6.73;;;;;;;6.64;nan;98325.13;5034472;28;20214;-71
2022/03/11 09:52:19;;;;;;;9.90;6.83;;;;;;;6.81;nan;98321.25;5034073;28;20237;-71
2022/03/11 09:54:46;;;;;;;9.00;6.60;;;;;;;7.01;nan;98322.25;5033745;28;20245;-71
2022/03/11 09:57:17;;;;;;;11.27;6.60;;;;;;;6.93;nan;98317.09;5034039;28;20209;-71
2022/03/11 09:59:43;;;;;;;12.27;6.70;;;;;;;7.02;nan;98319.41;5034803;28;20281;-71
2022/03/11 10:02:15;;;;;;;8.13;6.87;;;;;;;7.14;nan;98314.41;5033968;28;20213;-71
2022/03/11 10:04:52;;;;;;;9.40;6.60;;;;;;;7.11;nan;98312.16;5033903;28;20261;-71
2022/03/11 10:07:32;;;;;;;11.23;6.70;;;;;;;7.06;nan;98307.44;5033911;28;20199;-71
2022/03/11 10:10:12;;;;;;;12.97;6.70;;;;;;;7.12;nan;98309.34;5033645;28;20202;-71
2022/03/11 10:12:44;;;;;;;10.30;7.77;;;;;;;7.40;nan;98312.81;5033006;28;20190;-71
2022/03/11 10:15:11;;;;;;;13.40;7.10;;;;;;;7.52;nan;98310.44;5033862;28;20226;-71
2022/03/11 10:17:39;;;;;;;9.03;7.23;;;;;;;7.59;nan;98316.59;5033942;28;20209;-71
2022/03/11 10:20:09;;;;;;;10.27;7.40;;;;;;;7.41;nan;98311.78;5033767;28;20222;-71
2022/03/11 10:22:36;;;;;;;11.83;7.50;;;;;;;7.59;nan;98304.19;5033687;28;20229;-71
2022/03/11 10:25:16;;;;;;;9.53;7.17;;;;;;;7.78;nan;98308.78;5033637;28;20233;-71
2022/03/11 10:28:05;;;;;;;11.03;7.27;;;;;;;7.75;nan;98297.78;5033552;28;20189;-71
2022/03/11 10:30:36;;;;;;;13.20;7.50;;;;;;;7.96;nan;98308.28;5033544;28;20202;-71
2022/03/11 10:33:09;;;;;;;10.37;7.47;;;;;;;8.22;nan;98309.25;5033504;28;20216;-71
2022/03/11 10:35:38;;;;;;;9.93;7.50;;;;;;;8.15;nan;98311.00;5033338;28;20342;-71
2022/03/11 10:38:08;;;;;;;8.60;7.03;;;;;;;8.42;nan;98310.13;5033241;28;20208;-71
2022/03/11 10:40:40;;;;;;;10.53;7.57;;;;;;;8.33;nan;98302.56;5033359;28;20231;-71
2022/03/11 10:43:18;;;;;;;12.03;7.30;;;;;;;8.20;nan;98303.31;5033118;28;20637;-71
2022/03/11 10:45:51;;;;;;;8.43;7.57;;;;;;;8.31;nan;98302.75;5033097;28;20186;-71
2022/03/11 10:48:18;;;;;;;9.37;7.30;;;;;;;8.15;nan;98302.25;5033539;28;20217;-71
2022/03/11 10:50:45;;;;;;;9.87;7.20;;;;;;;8.65;nan;98301.84;5032855;28;20217;-71
2022/03/11 10:53:13;;;;;;;11.33;7.77;;;;;;;8.81;nan;98296.97;5032873;28;20208;-71
2022/03/11 10:55:43;;;;;;;12.23;7.97;;;;;;;8.82;nan;98295.16;5032470;28;20742;-71
2022/03/11 10:58:16;;;;;;;11.13;8.20;;;;;;;9.02;nan;98286.19;5032508;28;20206;-71
2022/03/11 11:00:44;;;;;;;8.13;6.87;;;;;;;8.97;nan;98287.81;5033201;28;20221;-71
2022/03/11 11:03:12;;;;;;;10.77;8.17;;;;;;;8.85;nan;98289.41;5033104;28;20208;-71
2022/03/11 11:05:39;;;;;;;9.87;7.23;;;;;;;8.94;nan;98283.72;5032945;28;20295;-71
2022/03/11 11:08:07;;;;;;;9.57;7.47;;;;;;;9.22;nan;98287.00;5032545;28;20703;-71
2022/03/11 11:10:37;;;;;;;11.27;8.27;;;;;;;9.29;nan;98287.00;5033017;28;20213;-71
2022/03/11 11:13:03;;;;;;;12.10;8.10;;;;;;;9.21;nan;98282.72;5033280;28;20252;-71
2022/03/11 11:15:30;;;;;;;14.00;8.10;;;;;;;9.33;nan;98278.41;5033028;28;20232;-71
2022/03/11 11:17:56;;;;;;;11.57;7.67;;;;;;;9.19;nan;98276.78;5033086;28;20202;-71
2022/03/11 11:20:34;;;;;;;11.30;7.90;;;;;;;9.27;nan;98278.41;5032875;28;20590;-71
2022/03/11 11:23:06;;;;;;;11.63;7.73;;;;;;;9.47;nan;98272.09;5032776;28;20200;-71
2022/03/11 11:25:34;;;;;;;11.23;7.90;;;;;;;9.43;nan;98268.22;5036851;28;20261;-71
2022/03/11 11:28:05;;;;;;;9.87;7.73;;;;;;;9.40;nan;98265.97;5036994;28;20202;-71
2022/03/11 11:30:32;;;;;;;10.70;8.10;;;;;;;9.43;nan;98259.44;5036919;28;20186;-71
2022/03/11 11:33:01;;;;;;;11.43;7.13;;;;;;;9.51;nan;98254.69;5036770;28;20206;-71
2022/03/11 11:35:27;;;;;;;11.53;7.73;;;;;;;9.67;nan;98253.44;5036251;28;20225;-71
2022/03/11 11:37:55;;;;;;;10.13;7.97;;;;;;;9.49;nan;98248.81;5037919;28;20224;-71
2022/03/11 11:40:26;;;;;;;10.57;7.27;;;;;;;9.46;nan;98243.91;5036453;28;20206;-71
2022/03/11 11:43:25;;;;;;;16.00;8.23;;;;;;;9.79;nan;98241.16;5036568;28;20261;-71
2022/03/11 11:45:54;;;;;;;12.93;7.73;;;;;;;9.45;nan;98233.47;5036638;28;20182;-71
2022/03/11 11:48:32;;;;;;;9.37;7.40;;;;;;;9.49;nan;98232.06;5036410;28;20236;-71
2022/03/11 11:51:06;;;;;;;9.70;7.77;;;;;;;9.57;nan;98229.19;5036293;28;20205;-71